createdAt,value
2022-08-26T08:45:36.285Z,39.90
2022-08-26T08:50:13.028Z,39.80
2022-08-26T08:54:46.607Z,39.30
2022-08-26T08:59:26.861Z,38.30
2022-08-26T09:04:08.606Z,37.40
2022-08-26T09:08:36.986Z,36.30
2022-08-26T09:13:13.749Z,36.10
2022-08-26T09:18:00.650Z,34.30
2022-08-26T09:22:47.865Z,33.40
2022-08-26T09:27:43.578Z,34.00
2022-08-26T09:32:24.879Z,33.60
2022-08-26T09:36:59.665Z,34.30
2022-08-26T09:41:42.554Z,34.40
2022-08-26T09:46:25.831Z,33.80
2022-08-26T09:51:08.576Z,33.60
2022-08-26T09:55:43.578Z,33.20
2022-08-26T10:00:38.719Z,32.80
2022-08-26T10:05:15.565Z,33.00
2022-08-26T10:09:54.645Z,33.20
2022-08-26T10:14:36.605Z,34.40
2022-08-26T10:19:13.205Z,34.00
2022-08-26T10:23:53.553Z,34.80
2022-08-26T10:28:36.545Z,35.20
2022-08-26T10:33:14.580Z,35.50
2022-08-26T10:37:52.532Z,37.00
2022-08-26T10:42:41.989Z,38.70
2022-08-26T10:47:15.887Z,38.70
2022-08-26T10:51:54.531Z,38.30
2022-08-26T10:56:40.534Z,36.30
2022-08-26T11:01:40.808Z,35.10
2022-08-26T11:06:36.966Z,33.50
2022-08-26T11:11:14.564Z,32.00
2022-08-26T11:16:16.568Z,31.30
2022-08-26T11:20:52.522Z,31.40
2022-08-26T11:25:30.825Z,30.90
2022-08-26T11:30:12.533Z,30.00
2022-08-26T11:35:04.526Z,29.60
2022-08-26T11:39:46.421Z,29.20
2022-08-26T11:44:25.506Z,29.60
2022-08-26T11:48:52.718Z,30.90
2022-08-26T11:53:27.504Z,35.50
2022-08-26T11:58:07.740Z,39.00
2022-08-26T12:02:42.490Z,42.00
2022-08-26T12:07:18.437Z,44.80
2022-08-26T12:12:00.483Z,52.60
2022-08-26T12:16:38.554Z,75.10
2022-08-26T12:21:20.535Z,87.50
2022-08-26T12:25:48.812Z,94.10
2022-08-26T12:30:27.554Z,96.30
2022-08-26T12:39:43.497Z,99.50
2022-08-26T12:44:17.469Z,99.90
2022-08-26T12:48:56.730Z,99.90
2022-08-26T12:53:36.526Z,99.90
2022-08-26T12:58:32.533Z,99.90
2022-08-26T13:03:06.717Z,99.90
2022-08-26T13:07:41.469Z,99.90
2022-08-26T13:12:15.613Z,99.90
2022-08-26T13:16:49.598Z,99.90
2022-08-26T13:21:19.734Z,99.90
2022-08-26T13:25:54.450Z,99.90
2022-08-26T13:30:29.580Z,99.90
2022-08-26T13:34:58.587Z,99.90
2022-08-26T13:39:33.443Z,99.90
2022-08-26T13:44:08.440Z,99.90
2022-08-26T13:48:42.468Z,99.90
2022-08-26T13:53:18.444Z,99.90
2022-08-26T13:57:52.411Z,99.90
2022-08-26T14:02:27.406Z,99.90
2022-08-26T14:06:54.613Z,99.90
2022-08-26T14:11:27.414Z,99.90
2022-08-26T14:16:01.502Z,99.90
2022-08-26T14:20:38.398Z,99.90
2022-08-26T14:25:12.443Z,99.90
2022-08-26T14:29:47.438Z,99.90
2022-08-26T14:34:22.383Z,99.90
2022-08-26T14:44:47.387Z,99.90
2022-08-26T14:49:14.657Z,99.90
2022-08-26T14:54:05.404Z,99.90
2022-08-26T14:58:38.386Z,99.90
2022-08-26T15:07:51.360Z,99.90
2022-08-26T15:13:05.385Z,99.90
2022-08-26T15:23:49.387Z,99.90
2022-08-26T15:28:16.544Z,99.90
2022-08-26T15:32:49.355Z,99.90
2022-08-26T15:37:23.375Z,99.90
2022-08-26T15:41:58.375Z,99.90
2022-08-26T15:46:39.476Z,99.90
2022-08-26T15:51:14.344Z,99.90
2022-08-26T15:55:41.521Z,99.90
2022-08-26T16:00:17.380Z,99.90
2022-08-26T16:04:51.349Z,99.90
2022-08-26T16:09:54.063Z,99.90
2022-08-26T16:14:28.359Z,99.90
2022-08-26T16:19:07.433Z,99.90
2022-08-26T16:23:45.012Z,99.90
2022-08-26T16:28:26.203Z,99.90
2022-08-26T16:33:02.465Z,99.90
2022-08-26T16:37:39.033Z,99.90
2022-08-26T16:42:20.339Z,99.90
2022-08-26T16:47:00.357Z,99.90
2022-08-26T16:51:37.893Z,99.90
2022-08-26T16:56:13.326Z,99.90
2022-08-26T17:00:47.340Z,99.90
2022-08-26T17:05:22.363Z,99.90
2022-08-26T17:09:55.320Z,99.90
2022-08-26T17:14:24.508Z,99.90
2022-08-26T17:18:57.318Z,99.90
2022-08-26T17:23:31.321Z,99.90
2022-08-26T17:28:04.320Z,99.90
2022-08-26T17:32:46.318Z,99.90
2022-08-26T17:37:13.227Z,99.90
2022-08-26T17:41:47.303Z,99.90
2022-08-26T17:46:27.546Z,99.90
2022-08-26T17:51:03.305Z,99.90
2022-08-26T17:55:37.318Z,99.90
2022-08-26T18:00:06.545Z,99.90
2022-08-26T18:04:40.327Z,99.90
2022-08-26T18:09:15.287Z,99.90
2022-08-26T18:13:49.277Z,99.90
2022-08-26T18:18:16.640Z,99.90
2022-08-26T18:22:50.280Z,99.90
2022-08-26T18:27:25.303Z,99.90
2022-08-26T18:31:59.283Z,99.90
2022-08-26T18:36:35.298Z,99.90
2022-08-26T18:41:10.257Z,99.90
2022-08-26T18:45:52.395Z,99.90
2022-08-26T18:50:26.307Z,99.90
2022-08-26T18:55:00.265Z,99.90
2022-08-26T18:59:30.236Z,99.90
2022-08-26T19:04:06.272Z,99.90
2022-08-26T19:08:44.606Z,99.90
2022-08-26T19:13:18.257Z,99.90
2022-08-26T19:17:51.273Z,99.90
2022-08-26T19:22:19.840Z,99.90
2022-08-26T19:26:57.593Z,99.90
2022-08-26T19:31:32.269Z,99.90
2022-08-26T19:36:06.634Z,99.90
2022-08-26T19:40:35.492Z,99.90
2022-08-26T19:45:24.736Z,99.90
2022-08-26T19:49:59.241Z,99.90
2022-08-26T19:54:33.247Z,99.90
2022-08-26T19:59:08.287Z,99.90
2022-08-26T20:03:42.272Z,99.90
2022-08-26T20:08:09.583Z,99.90
2022-08-26T20:12:57.224Z,99.90
2022-08-26T20:17:32.202Z,99.90
2022-08-26T20:22:06.230Z,99.90
2022-08-26T20:26:41.259Z,99.90
2022-08-26T20:31:15.248Z,99.90
2022-08-26T20:35:50.209Z,99.90
2022-08-26T20:40:24.330Z,99.90
2022-08-26T20:44:58.239Z,99.90
2022-08-26T20:49:31.228Z,99.90
2022-08-26T20:54:08.210Z,99.90
2022-08-26T20:58:42.188Z,99.90
2022-08-26T21:03:09.953Z,99.90
2022-08-26T21:07:43.186Z,99.90
2022-08-26T21:12:19.194Z,99.90
2022-08-26T21:16:54.238Z,99.90
2022-08-26T21:21:28.204Z,99.90
2022-08-26T21:26:01.201Z,99.90
2022-08-26T21:30:37.176Z,99.90
2022-08-26T21:35:04.265Z,99.90
2022-08-26T21:39:38.190Z,99.90
2022-08-26T21:44:12.193Z,99.90
2022-08-26T21:48:50.527Z,99.90
2022-08-26T21:53:24.169Z,99.90
2022-08-26T21:57:58.170Z,99.90
2022-08-26T22:02:25.754Z,99.90
2022-08-26T22:07:02.158Z,99.90
2022-08-26T22:11:36.270Z,99.90
2022-08-26T22:22:21.142Z,99.90
2022-08-26T22:26:58.170Z,99.90
2022-08-26T22:31:38.063Z,99.90
2022-08-26T22:36:12.236Z,99.90
2022-08-26T22:40:48.143Z,99.90
2022-08-26T22:45:18.146Z,99.90
2022-08-26T22:56:02.273Z,99.90
2022-08-26T23:11:30.260Z,99.90
2022-08-26T23:16:15.196Z,99.90
2022-08-26T23:20:49.122Z,99.90
2022-08-26T23:25:25.173Z,99.90
2022-08-26T23:30:00.119Z,99.90
2022-08-26T23:34:51.084Z,99.90
2022-08-26T23:39:17.996Z,99.90
2022-08-26T23:43:52.112Z,99.90
2022-08-26T23:48:27.082Z,99.90
2022-08-26T23:53:15.094Z,99.90
2022-08-26T23:57:49.092Z,99.90
